createdAt,value
2017-11-11T00:00:11.880Z,5.20
2017-11-11T00:02:44.040Z,5.20
2017-11-11T00:05:13.211Z,5.20
2017-11-11T00:07:42.340Z,5.20
2017-11-11T00:10:12.426Z,5.20
2017-11-11T00:12:41.550Z,5.20
2017-11-11T00:15:15.499Z,5.10
2017-11-11T00:17:44.652Z,5.10
2017-11-11T00:20:14.560Z,5.10
2017-11-11T00:22:45.526Z,5.00
2017-11-11T00:25:15.391Z,5.00
2017-11-11T00:27:44.504Z,5.00
2017-11-11T00:30:14.541Z,4.90
2017-11-11T00:32:43.709Z,4.90
2017-11-11T00:35:13.749Z,4.90
2017-11-11T00:37:43.971Z,4.90
2017-11-11T00:40:13.052Z,4.80
2017-11-11T00:42:43.194Z,4.90
2017-11-11T00:45:12.361Z,4.80
2017-11-11T00:47:41.482Z,4.80
2017-11-11T00:50:11.333Z,4.80
2017-11-11T00:52:40.995Z,4.80
2017-11-11T00:55:10.270Z,4.90
2017-11-11T00:57:39.555Z,4.90
2017-11-11T01:00:08.703Z,4.90
2017-11-11T01:02:38.653Z,4.90
2017-11-11T01:05:07.776Z,4.90
2017-11-11T01:07:37.781Z,5.00
2017-11-11T01:10:07.611Z,5.00
2017-11-11T01:12:37.564Z,5.00
2017-11-11T01:15:07.259Z,5.00
2017-11-11T01:17:36.413Z,5.00
2017-11-11T01:20:05.681Z,5.00
2017-11-11T01:22:36.448Z,4.90
2017-11-11T01:25:05.766Z,4.90
2017-11-11T01:27:35.010Z,4.90
2017-11-11T01:30:04.395Z,4.90
2017-11-11T01:32:33.701Z,4.90
2017-11-11T01:35:03.806Z,4.90
2017-11-11T01:37:33.220Z,4.90
2017-11-11T01:40:02.602Z,4.90
2017-11-11T01:42:31.863Z,4.90
2017-11-11T01:45:01.523Z,4.90
2017-11-11T01:47:30.731Z,4.90
2017-11-11T01:49:59.908Z,5.00
2017-11-11T01:52:29.240Z,5.00
2017-11-11T01:54:58.478Z,5.00
2017-11-11T01:57:28.697Z,5.00
2017-11-11T01:59:58.843Z,5.00
2017-11-11T02:02:29.298Z,4.90
2017-11-11T02:04:58.507Z,4.90
2017-11-11T02:07:27.793Z,5.00
2017-11-11T02:09:57.929Z,5.00
2017-11-11T02:12:27.172Z,4.90
2017-11-11T02:14:57.206Z,4.90
2017-11-11T02:17:26.635Z,4.90
2017-11-11T02:19:55.754Z,4.90
2017-11-11T02:22:25.696Z,4.90
2017-11-11T02:24:54.945Z,4.90
2017-11-11T02:27:24.086Z,4.90
2017-11-11T02:29:53.445Z,4.90
2017-11-11T02:32:22.697Z,4.90
2017-11-11T02:34:52.942Z,4.80
2017-11-11T02:37:23.793Z,4.80
2017-11-11T02:39:52.961Z,4.80
2017-11-11T02:42:23.189Z,4.80
2017-11-11T02:44:53.236Z,4.80
2017-11-11T02:47:22.397Z,4.80
2017-11-11T02:49:51.510Z,4.80
2017-11-11T02:52:21.120Z,4.80
2017-11-11T02:54:50.205Z,4.80
2017-11-11T02:57:19.528Z,4.80
2017-11-11T02:59:49.551Z,4.80
2017-11-11T03:02:19.428Z,4.90
2017-11-11T03:04:48.549Z,4.90
2017-11-11T03:07:17.709Z,5.00
2017-11-11T03:09:46.799Z,5.00
2017-11-11T03:12:16.804Z,5.10
2017-11-11T03:14:46.318Z,5.10
2017-11-11T03:17:15.464Z,5.20
2017-11-11T03:19:45.767Z,5.20
2017-11-11T03:22:14.928Z,5.20
2017-11-11T03:24:50.829Z,5.30
2017-11-11T03:27:20.371Z,5.30
2017-11-11T03:29:50.121Z,5.30
2017-11-11T03:32:20.009Z,5.30
2017-11-11T03:34:49.159Z,5.20
2017-11-11T03:37:18.234Z,5.30
2017-11-11T03:39:47.379Z,5.20
2017-11-11T03:42:17.298Z,5.10
2017-11-11T03:44:47.171Z,5.10
2017-11-11T03:47:16.686Z,5.00
2017-11-11T03:49:46.396Z,5.00
2017-11-11T03:52:15.494Z,5.00
2017-11-11T03:54:44.588Z,4.90
2017-11-11T03:57:13.823Z,4.80
2017-11-11T03:59:43.030Z,4.90
2017-11-11T04:02:12.159Z,4.80
2017-11-11T04:04:41.297Z,4.90
2017-11-11T04:07:10.375Z,4.90
2017-11-11T04:09:39.447Z,5.00
2017-11-11T04:12:12.448Z,5.00
2017-11-11T04:14:41.631Z,5.00
2017-11-11T04:17:10.749Z,5.00
2017-11-11T04:19:40.458Z,5.00
2017-11-11T04:22:10.420Z,5.20
2017-11-11T04:24:40.314Z,5.20
2017-11-11T04:27:11.502Z,5.20
2017-11-11T04:29:40.654Z,5.20
2017-11-11T04:32:09.767Z,5.10
2017-11-11T04:34:40.512Z,5.10
2017-11-11T04:37:09.596Z,5.10
2017-11-11T04:39:38.711Z,5.10
2017-11-11T04:42:09.545Z,5.10
2017-11-11T04:44:38.638Z,5.10
2017-11-11T04:47:08.480Z,5.00
2017-11-11T04:49:39.253Z,5.10
2017-11-11T04:52:08.563Z,5.00
2017-11-11T04:54:37.690Z,5.00
2017-11-11T04:57:07.193Z,5.00
2017-11-11T04:59:36.525Z,5.00
2017-11-11T05:02:05.763Z,5.10
2017-11-11T05:04:35.526Z,5.00
2017-11-11T05:07:04.652Z,4.90
2017-11-11T05:09:33.821Z,4.90
2017-11-11T05:12:03.951Z,4.90
2017-11-11T05:14:33.598Z,4.90
2017-11-11T05:17:03.093Z,4.90
2017-11-11T05:19:34.465Z,4.80
2017-11-11T05:22:03.769Z,4.80
2017-11-11T05:24:33.732Z,4.70
2017-11-11T05:27:03.817Z,4.70
2017-11-11T05:29:33.780Z,4.70
2017-11-11T05:32:02.890Z,4.70
2017-11-11T05:34:33.071Z,4.70
2017-11-11T05:37:02.252Z,4.70
2017-11-11T05:39:31.736Z,4.70
2017-11-11T05:42:02.278Z,4.70
2017-11-11T05:44:32.313Z,4.70
2017-11-11T05:47:01.790Z,4.70
2017-11-11T05:49:31.852Z,4.60
2017-11-11T05:52:01.078Z,4.60
2017-11-11T05:54:30.486Z,4.70
2017-11-11T05:57:00.209Z,4.60
2017-11-11T05:59:29.397Z,4.60
2017-11-11T06:01:58.735Z,4.70
2017-11-11T06:04:28.219Z,4.70
2017-11-11T06:06:57.338Z,4.70
2017-11-11T06:09:26.464Z,4.60
2017-11-11T06:11:55.677Z,4.70
2017-11-11T06:14:24.754Z,4.60
2017-11-11T06:16:53.846Z,4.60
2017-11-11T06:19:22.989Z,4.60
2017-11-11T06:21:52.843Z,4.50
2017-11-11T06:24:23.795Z,4.60
2017-11-11T06:26:54.544Z,4.60
2017-11-11T06:29:24.430Z,4.70
2017-11-11T06:31:53.517Z,4.70
2017-11-11T06:34:22.688Z,4.60
2017-11-11T06:36:53.262Z,4.60
2017-11-11T06:39:22.352Z,4.70
2017-11-11T06:41:52.068Z,4.70
2017-11-11T06:44:22.344Z,4.70
2017-11-11T06:46:51.596Z,4.70
2017-11-11T06:49:20.717Z,4.70
2017-11-11T06:51:50.124Z,4.80
2017-11-11T06:54:20.492Z,4.90
2017-11-11T06:56:50.348Z,5.00
2017-11-11T06:59:20.433Z,5.00
2017-11-11T07:01:50.367Z,5.00
2017-11-11T07:04:19.565Z,5.00
2017-11-11T07:06:49.735Z,5.00
2017-11-11T07:09:18.827Z,4.90
2017-11-11T07:11:47.941Z,5.00
2017-11-11T07:14:17.582Z,5.00
2017-11-11T07:16:46.731Z,5.00
2017-11-11T07:19:16.796Z,5.10
2017-11-11T07:21:46.323Z,5.10
2017-11-11T07:24:15.427Z,5.10
2017-11-11T07:26:44.520Z,5.20
2017-11-11T07:29:13.753Z,5.30
2017-11-11T07:31:42.838Z,5.30
2017-11-11T07:34:12.032Z,5.40
2017-11-11T07:36:42.047Z,5.40
2017-11-11T07:39:11.143Z,5.50
2017-11-11T07:41:40.254Z,5.50
2017-11-11T07:44:10.766Z,5.40
2017-11-11T07:46:39.906Z,5.40
2017-11-11T07:49:09.755Z,5.20
2017-11-11T07:51:39.474Z,5.20
2017-11-11T07:54:08.720Z,5.20
2017-11-11T07:56:38.660Z,5.30
2017-11-11T07:59:08.364Z,5.30
2017-11-11T08:01:37.475Z,5.40
2017-11-11T08:04:06.615Z,5.40
2017-11-11T08:06:36.886Z,5.40
2017-11-11T08:09:06.201Z,5.60
2017-11-11T08:11:35.382Z,5.60
2017-11-11T08:14:05.353Z,5.90
2017-11-11T08:16:34.569Z,5.80
2017-11-11T08:19:03.774Z,5.90
2017-11-11T08:21:33.214Z,6.00
2017-11-11T08:24:02.479Z,6.10
2017-11-11T08:26:31.679Z,6.50
2017-11-11T08:29:02.067Z,6.70
2017-11-11T08:31:32.226Z,6.80
2017-11-11T08:34:01.514Z,6.80
2017-11-11T08:36:30.884Z,7.00
2017-11-11T08:39:00.358Z,7.10
2017-11-11T08:41:34.705Z,7.20
2017-11-11T08:44:04.313Z,7.30
2017-11-11T08:46:34.399Z,7.30
2017-11-11T08:49:04.594Z,7.20
2017-11-11T08:51:34.094Z,7.10
2017-11-11T08:54:04.436Z,7.00
2017-11-11T08:56:33.735Z,6.90
2017-11-11T08:59:03.099Z,6.80
2017-11-11T09:01:34.015Z,6.70
2017-11-11T09:04:04.253Z,6.60
2017-11-11T09:06:33.572Z,6.60
2017-11-11T09:09:03.702Z,6.60
2017-11-11T09:11:33.058Z,6.70
2017-11-11T09:14:02.398Z,6.80
2017-11-11T09:16:31.634Z,6.80
2017-11-11T09:19:00.806Z,7.00
2017-11-11T09:21:30.913Z,8.30
2017-11-11T09:24:00.424Z,8.30
2017-11-11T09:26:30.047Z,8.40
2017-11-11T09:28:59.829Z,8.40
2017-11-11T09:31:29.591Z,8.20
2017-11-11T09:33:59.580Z,7.60
2017-11-11T09:36:28.946Z,7.60
2017-11-11T09:39:00.610Z,7.30
2017-11-11T09:41:30.600Z,6.90
2017-11-11T09:43:59.711Z,6.80
2017-11-11T09:46:29.848Z,6.70
2017-11-11T09:48:58.979Z,6.60
2017-11-11T09:51:28.979Z,6.50
2017-11-11T09:53:59.397Z,6.40
2017-11-11T09:56:28.681Z,6.50
2017-11-11T09:58:57.845Z,6.60
2017-11-11T10:01:27.808Z,6.60
2017-11-11T10:03:57.725Z,6.60
2017-11-11T10:06:26.825Z,6.60
2017-11-11T10:08:56.104Z,6.50
2017-11-11T10:11:26.193Z,6.50
2017-11-11T10:13:56.128Z,6.40
2017-11-11T10:16:27.137Z,6.30
2017-11-11T10:18:56.231Z,6.40
2017-11-11T10:21:25.486Z,6.40
2017-11-11T10:23:57.444Z,6.30
2017-11-11T10:26:27.511Z,6.40
2017-11-11T10:28:57.031Z,6.40
2017-11-11T10:31:26.912Z,6.50
2017-11-11T10:33:56.028Z,6.50
2017-11-11T10:36:25.276Z,6.60
2017-11-11T10:38:55.188Z,6.80
2017-11-11T10:41:24.245Z,6.80
2017-11-11T10:43:53.688Z,6.90
2017-11-11T10:46:22.770Z,6.90
2017-11-11T10:48:51.943Z,6.80
2017-11-11T10:51:21.910Z,6.50
2017-11-11T10:53:50.988Z,6.50
2017-11-11T10:56:20.912Z,6.30
2017-11-11T10:58:51.555Z,6.30
2017-11-11T11:01:21.471Z,6.20
2017-11-11T11:03:50.556Z,6.20
2017-11-11T11:06:20.453Z,6.20
2017-11-11T11:08:49.685Z,6.20
2017-11-11T11:11:19.864Z,6.30
2017-11-11T11:13:51.175Z,6.70
2017-11-11T11:16:20.292Z,6.70
2017-11-11T11:18:49.394Z,6.80
2017-11-11T11:21:18.835Z,6.90
2017-11-11T11:23:48.671Z,6.90
2017-11-11T11:26:18.724Z,6.90
2017-11-11T11:28:49.133Z,6.90
2017-11-11T11:31:18.241Z,6.90
2017-11-11T11:33:47.317Z,7.00
2017-11-11T11:36:16.470Z,7.10
2017-11-11T11:38:45.698Z,7.20
2017-11-11T11:41:15.595Z,7.40
2017-11-11T11:43:44.817Z,7.40
2017-11-11T11:46:15.006Z,7.40
2017-11-11T11:48:44.103Z,7.30
2017-11-11T11:51:13.584Z,7.20
2017-11-11T11:53:42.912Z,7.10
2017-11-11T11:56:12.801Z,7.20
2017-11-11T11:58:42.393Z,7.20
2017-11-11T12:01:12.076Z,7.20
2017-11-11T12:03:41.352Z,7.30
2017-11-11T12:06:10.528Z,7.30
2017-11-11T12:08:39.715Z,7.10
2017-11-11T12:11:09.043Z,7.00
2017-11-11T12:13:38.489Z,7.10
2017-11-11T12:16:07.605Z,7.10
2017-11-11T12:18:36.776Z,7.20
2017-11-11T12:21:09.209Z,7.40
2017-11-11T12:23:38.548Z,7.50
2017-11-11T12:26:08.753Z,7.50
2017-11-11T12:28:38.721Z,7.50
2017-11-11T12:31:08.685Z,7.70
2017-11-11T12:33:37.866Z,7.70
2017-11-11T12:36:07.129Z,7.80
2017-11-11T12:38:36.487Z,7.90
2017-11-11T12:41:06.452Z,7.70
2017-11-11T12:43:35.697Z,7.70
2017-11-11T12:46:04.977Z,7.70
2017-11-11T12:48:34.350Z,7.60
2017-11-11T12:51:04.172Z,7.60
2017-11-11T12:53:33.466Z,7.70
2017-11-11T12:56:02.671Z,7.70
2017-11-11T12:58:32.163Z,7.80
2017-11-11T13:01:01.512Z,8.00
2017-11-11T13:03:30.681Z,8.00
2017-11-11T13:06:00.088Z,8.10
2017-11-11T13:08:29.380Z,8.10
2017-11-11T13:10:58.538Z,8.20
2017-11-11T13:13:28.865Z,8.30
2017-11-11T13:15:58.213Z,8.00
2017-11-11T13:18:27.358Z,7.90
2017-11-11T13:20:56.576Z,7.70
2017-11-11T13:23:25.650Z,7.60
2017-11-11T13:25:55.535Z,7.40
2017-11-11T13:28:24.666Z,7.40
2017-11-11T13:30:53.807Z,7.30
2017-11-11T13:33:24.119Z,7.20
2017-11-11T13:35:54.067Z,7.20
2017-11-11T13:38:23.888Z,7.20
2017-11-11T13:40:53.756Z,7.10
2017-11-11T13:43:24.165Z,7.10
2017-11-11T13:45:54.041Z,7.20
2017-11-11T13:48:23.687Z,7.10
2017-11-11T13:50:53.117Z,7.20
2017-11-11T13:53:23.443Z,7.30
2017-11-11T13:55:52.629Z,7.30
2017-11-11T13:58:26.774Z,7.40
2017-11-11T14:00:58.531Z,7.40
2017-11-11T14:03:27.794Z,7.40
2017-11-11T14:05:56.897Z,7.40
2017-11-11T14:08:26.030Z,7.30
2017-11-11T14:10:55.244Z,7.30
2017-11-11T14:13:26.471Z,7.20
2017-11-11T14:15:56.429Z,7.00
2017-11-11T14:18:26.463Z,6.90
2017-11-11T14:20:56.436Z,6.90
2017-11-11T14:26:34.266Z,6.80
2017-11-11T14:29:03.503Z,6.70
2017-11-11T14:31:32.690Z,6.60
2017-11-11T14:34:02.590Z,6.50
2017-11-11T14:36:31.700Z,6.50
2017-11-11T14:39:01.030Z,6.50
2017-11-11T14:41:30.191Z,6.40
2017-11-11T14:43:59.279Z,6.40
2017-11-11T14:46:29.206Z,6.30
2017-11-11T14:48:58.742Z,6.20
2017-11-11T14:51:27.862Z,6.20
2017-11-11T14:53:56.949Z,6.20
2017-11-11T14:56:26.253Z,6.10
2017-11-11T14:58:55.396Z,6.10
2017-11-11T15:01:24.493Z,6.00
2017-11-11T15:03:53.764Z,6.00
2017-11-11T15:06:22.863Z,5.90
2017-11-11T15:08:52.006Z,5.90
2017-11-11T15:11:22.074Z,5.90
2017-11-11T15:13:51.248Z,5.90
2017-11-11T15:16:21.263Z,5.90
2017-11-11T15:18:51.579Z,5.90
2017-11-11T15:21:21.531Z,6.00
2017-11-11T15:23:50.780Z,5.90
2017-11-11T15:26:20.418Z,6.00
2017-11-11T15:28:49.732Z,6.00
2017-11-11T15:31:18.921Z,6.00
2017-11-11T15:33:48.103Z,6.00
2017-11-11T15:36:17.227Z,6.00
2017-11-11T15:38:46.369Z,5.90
2017-11-11T15:41:17.540Z,5.90
2017-11-11T15:43:46.728Z,5.90
2017-11-11T15:46:15.933Z,5.90
2017-11-11T15:48:45.848Z,5.90
2017-11-11T15:51:15.161Z,5.80
2017-11-11T15:53:46.201Z,5.80
2017-11-11T15:56:16.182Z,5.80
2017-11-11T15:58:45.300Z,5.80
2017-11-11T16:01:14.477Z,5.80
2017-11-11T16:03:43.796Z,5.80
2017-11-11T16:06:12.926Z,5.70
2017-11-11T16:08:42.209Z,5.70
2017-11-11T16:11:11.488Z,5.70
2017-11-11T16:13:40.700Z,5.60
2017-11-11T16:16:10.722Z,5.60
2017-11-11T16:18:40.000Z,5.50
2017-11-11T16:21:10.022Z,5.50
2017-11-11T16:23:39.163Z,5.50
2017-11-11T16:26:08.712Z,5.50
2017-11-11T16:28:38.641Z,5.40
2017-11-11T16:31:08.533Z,5.40
2017-11-11T16:33:39.623Z,5.40
2017-11-11T16:36:08.759Z,5.40
2017-11-11T16:38:37.899Z,5.40
2017-11-11T16:41:07.037Z,5.40
2017-11-11T16:43:36.943Z,5.30
2017-11-11T16:46:07.004Z,5.30
2017-11-11T16:48:36.871Z,5.30
2017-11-11T16:51:06.064Z,5.30
2017-11-11T16:53:35.209Z,5.30
2017-11-11T16:56:04.463Z,5.40
2017-11-11T16:58:33.556Z,5.40
2017-11-11T17:01:02.693Z,5.40
2017-11-11T17:03:33.141Z,5.40
2017-11-11T17:06:03.252Z,5.30
2017-11-11T17:08:34.520Z,5.40
2017-11-11T17:11:04.407Z,5.30
2017-11-11T17:13:33.527Z,5.30
2017-11-11T17:16:02.961Z,5.30
2017-11-11T17:18:32.063Z,5.30
2017-11-11T17:21:01.165Z,5.40
2017-11-11T17:23:30.397Z,5.40
2017-11-11T17:26:00.328Z,5.40
2017-11-11T17:28:30.253Z,5.30
2017-11-11T17:31:00.507Z,5.30
2017-11-11T17:33:29.708Z,5.30
2017-11-11T17:35:59.624Z,5.30
2017-11-11T17:38:29.122Z,5.30
2017-11-11T17:40:58.304Z,5.30
2017-11-11T17:43:27.416Z,5.20
2017-11-11T17:45:56.964Z,5.20
2017-11-11T17:48:26.226Z,5.20
2017-11-11T17:50:55.720Z,5.20
2017-11-11T17:53:27.352Z,5.10
2017-11-11T17:55:57.199Z,5.10
2017-11-11T17:58:27.126Z,5.10
2017-11-11T18:00:56.828Z,5.10
2017-11-11T18:03:25.954Z,5.10
2017-11-11T18:05:55.129Z,5.10
2017-11-11T18:08:24.320Z,5.10
2017-11-11T18:10:53.466Z,5.20
2017-11-11T18:13:22.723Z,5.20
2017-11-11T18:15:53.177Z,5.10
2017-11-11T18:18:22.434Z,5.10
2017-11-11T18:20:52.096Z,5.10
2017-11-11T18:23:22.220Z,5.00
2017-11-11T18:25:52.145Z,5.00
2017-11-11T18:28:21.471Z,5.00
2017-11-11T18:30:53.610Z,4.90
2017-11-11T18:33:23.555Z,4.90
2017-11-11T18:35:52.738Z,4.90
2017-11-11T18:38:22.463Z,4.90
2017-11-11T18:40:52.521Z,4.80
2017-11-11T18:43:22.668Z,4.80
2017-11-11T18:45:52.478Z,4.80
2017-11-11T18:48:21.609Z,4.80
2017-11-11T18:50:51.538Z,4.70
2017-11-11T18:53:20.997Z,4.70
2017-11-11T18:55:50.181Z,4.70
2017-11-11T18:58:19.321Z,4.60
2017-11-11T19:00:48.870Z,4.60
2017-11-11T19:03:19.194Z,4.50
2017-11-11T19:05:48.600Z,4.50
2017-11-11T19:08:18.415Z,4.50
2017-11-11T19:10:47.965Z,4.40
2017-11-11T19:13:20.479Z,4.40
2017-11-11T19:15:49.901Z,4.40
2017-11-11T19:18:20.857Z,4.40
2017-11-11T19:20:50.883Z,4.40
2017-11-11T19:23:20.307Z,4.40
2017-11-11T19:25:49.811Z,4.40
2017-11-11T19:28:21.995Z,4.30
2017-11-11T19:30:52.657Z,4.40
2017-11-11T19:33:22.794Z,4.40
2017-11-11T19:35:53.525Z,4.30
2017-11-11T19:38:25.477Z,4.30
2017-11-11T19:40:55.708Z,4.20
2017-11-11T19:43:25.040Z,4.20
2017-11-11T19:45:55.398Z,4.20
2017-11-11T19:48:24.728Z,4.20
2017-11-11T19:50:54.596Z,4.20
2017-11-11T19:53:25.391Z,4.10
2017-11-11T19:55:54.574Z,4.10
2017-11-11T19:58:23.847Z,4.10
2017-11-11T20:00:53.313Z,4.10
2017-11-11T20:03:22.487Z,4.10
2017-11-11T20:05:51.764Z,4.00
2017-11-11T20:08:21.141Z,4.00
2017-11-11T20:10:51.061Z,3.90
2017-11-11T20:13:20.972Z,3.90
2017-11-11T20:15:50.505Z,3.90
2017-11-11T20:18:21.362Z,3.80
2017-11-11T20:20:52.426Z,3.90
2017-11-11T20:23:21.544Z,3.80
2017-11-11T20:25:51.542Z,3.90
2017-11-11T20:28:22.495Z,3.90
2017-11-11T20:30:51.660Z,3.90
2017-11-11T20:33:21.069Z,3.90
2017-11-11T20:35:51.232Z,3.90
2017-11-11T20:38:20.353Z,3.90
2017-11-11T20:40:49.612Z,3.90
2017-11-11T20:43:18.877Z,3.90
2017-11-11T20:45:48.818Z,3.90
2017-11-11T20:48:18.070Z,4.00
2017-11-11T20:50:47.547Z,3.90
2017-11-11T20:53:18.408Z,3.90
2017-11-11T20:55:50.127Z,3.90
2017-11-11T20:58:21.335Z,3.90
2017-11-11T21:00:50.722Z,4.00
2017-11-11T21:03:20.076Z,4.00
2017-11-11T21:05:49.239Z,3.90
2017-11-11T21:08:19.230Z,4.00
2017-11-11T21:10:48.771Z,3.90
2017-11-11T21:13:18.097Z,4.00
2017-11-11T21:15:48.099Z,4.00
2017-11-11T21:18:17.428Z,4.00
2017-11-11T21:20:46.662Z,4.00
2017-11-11T21:23:15.931Z,4.00
2017-11-11T21:25:46.087Z,4.00
2017-11-11T21:28:16.225Z,4.00
2017-11-11T21:30:45.514Z,4.00
2017-11-11T21:33:15.142Z,4.00
2017-11-11T21:35:45.246Z,4.00
2017-11-11T21:38:14.522Z,3.90
2017-11-11T21:40:43.841Z,4.00
2017-11-11T21:43:13.141Z,3.90
2017-11-11T21:45:42.543Z,4.00
2017-11-11T21:48:11.942Z,4.00
2017-11-11T21:50:41.286Z,4.00
2017-11-11T21:53:10.463Z,4.00
2017-11-11T21:55:39.895Z,3.90
2017-11-11T21:58:09.085Z,3.90
2017-11-11T22:00:39.349Z,3.90
2017-11-11T22:03:10.465Z,3.90
2017-11-11T22:05:39.634Z,3.90
2017-11-11T22:08:08.796Z,3.90
2017-11-11T22:10:38.012Z,3.90
2017-11-11T22:13:07.087Z,3.90
2017-11-11T22:15:37.554Z,4.00
2017-11-11T22:18:06.976Z,4.00
2017-11-11T22:20:36.059Z,4.00
2017-11-11T22:23:05.232Z,4.10
2017-11-11T22:25:35.164Z,4.10
2017-11-11T22:28:04.293Z,4.10
2017-11-11T22:30:34.181Z,4.10
2017-11-11T22:33:03.807Z,4.10
2017-11-11T22:35:32.899Z,4.10
2017-11-11T22:38:01.997Z,4.10
2017-11-11T22:40:31.951Z,4.10
2017-11-11T22:43:01.052Z,4.10
2017-11-11T22:45:30.576Z,4.20
2017-11-11T22:48:00.179Z,4.20
2017-11-11T22:50:29.255Z,4.20
2017-11-11T22:52:58.357Z,4.30
2017-11-11T22:55:28.527Z,4.30
2017-11-11T22:57:57.621Z,4.30
2017-11-11T23:00:41.052Z,4.40
2017-11-11T23:03:10.156Z,4.40
2017-11-11T23:05:39.331Z,4.40
2017-11-11T23:08:08.474Z,4.40
2017-11-11T23:10:37.612Z,4.40
2017-11-11T23:13:08.505Z,4.40
2017-11-11T23:15:37.875Z,4.50
2017-11-11T23:18:07.641Z,4.50
2017-11-11T23:20:36.723Z,4.50
2017-11-11T23:23:05.928Z,4.50
2017-11-11T23:25:35.015Z,4.50
2017-11-11T23:28:04.123Z,4.50
2017-11-11T23:30:33.237Z,4.50
2017-11-11T23:33:02.311Z,4.50
2017-11-11T23:35:31.427Z,4.50
2017-11-11T23:38:02.125Z,4.60
2017-11-11T23:40:31.272Z,4.50
2017-11-11T23:43:01.141Z,4.50
2017-11-11T23:45:30.565Z,4.50
2017-11-11T23:48:00.574Z,4.60
2017-11-11T23:50:29.657Z,4.50
2017-11-11T23:52:59.646Z,4.50
2017-11-11T23:55:28.735Z,4.50
2017-11-11T23:57:57.804Z,4.50
